AWG-1

EHMA · Friesland, 荷兰

罗盘
风向 的 风向 310° 直升机
风: 18 kt, 5 beaufort
0 1.000 2.000 3.000 4.000 5.000
FEW 3.800 ft
METAR EHMA 080655Z AUTO 31018KT 9999 FEW038 05/M02 Q1005

METAR AWG-1 - EHMA

AWG-1是,荷兰中的直升机场。 该领域的国际民航组织标志是EHMA.

这份报告是针对2022年12月8日 07:55, 当地时间在AWG-1进行的。

机场观察

风向为310°,速度为18 kt。

可见度为10 km 或者更多。

有几云在3.800 ft的高度。 没有观察到天花板。

温度为5 °C,阵风为-2 °C。 露点为-2 °C,相对湿度为61%。 海平面上的气压为1005 hPa (QNH)。

白天

今天,太阳从08:38升起,在16:17降落。 这适用于AWG-1,世界夏令时可能有所不同。 当地时间与世界标准时间之间的时差为+1 小时。 当前,没有夏令时有效。

公司介绍

我们没有关于这个机场的公司信息。

体会

到Vliegles.nl去找飞行课程,跳伞和其他飞行体验。 浏览页面,了解AWG-1附近所有可用的活动。 你也可以使用搜索功能来寻找你所在地附近的特定飞行课程、跳伞或其他飞行体验。

乌云

3.800 ft FEW 几云

温度 & 天气

温度 5 °C
露点 -2 °C
相对湿度 61%
风寒 -2 °C
Kp-index 2 (0-9)

白天

日出
08:38 (32m)
中午
12:28
日落
16:17

小工具

你想在你的网站上有一个关于AWG-1的当前航空天气(METAR)的小部件吗?

显示HTML代码

我们和第三方通过cookies跟踪您在我们网站上的互联网行为。如果你继续,我们认为你同意我们的饼干政策